Time;durP1;ratioP1;P1;durP2;ratioP2;P2;SDS_P1;SDS_P2;PMS_P1;PMS_P2;Temp;Humidity;BMP_temperature;BMP_pressure;BME280_temperature;BME280_humidity;BME280_pressure;Samples;Min_cycle;Max_cycle;Signal;HPM_P1;HPM_P2
2021/07/05 00:00:54;;;;;;;6.18;2.95;;;;;;;17.13;100.00;99915.56;4984424;28;20121;-84
2021/07/05 00:03:29;;;;;;;5.57;2.85;;;;;;;17.11;100.00;99908.72;5002079;28;20038;-84
2021/07/05 00:06:14;;;;;;;6.57;3.20;;;;;;;17.07;100.00;99908.03;4985468;28;20026;-84
2021/07/05 00:08:49;;;;;;;;;;;;;;;;;;;;;
2021/07/05 00:11:24;;;;;;;7.75;3.25;;;;;;;16.91;100.00;99904.59;5003496;28;20546;-83
2021/07/05 00:14:14;;;;;;;;;;;;;;;;;;;;;
2021/07/05 00:17:10;;;;;;;;;;;;;;;;;;;;;
2021/07/05 00:23:31;;;;;;;6.78;3.33;;;;;;;16.74;100.00;99918.56;4932600;28;20064;-83
2021/07/05 00:26:06;;;;;;;6.13;3.10;;;;;;;16.74;100.00;99905.47;4983819;28;20050;-84
2021/07/05 00:29:07;;;;;;;;;;;;;;;;;;;;;
2021/07/05 00:31:45;;;;;;;6.13;3.40;;;;;;;16.90;100.00;99908.13;5005409;28;20125;-83
2021/07/05 00:34:37;;;;;;;6.03;3.22;;;;;;;17.05;100.00;99907.28;4985005;28;20402;-82
2021/07/05 00:37:25;;;;;;;5.55;2.92;;;;;;;17.13;100.00;99902.47;4987140;28;20026;-83
2021/07/05 00:40:33;;;;;;;6.78;3.00;;;;;;;17.15;100.00;99895.38;4986830;28;20031;-83
2021/07/05 00:43:04;;;;;;;5.93;3.10;;;;;;;17.16;100.00;99888.34;4944956;28;20091;-82
2021/07/05 00:48:36;;;;;;;5.40;3.13;;;;;;;17.10;100.00;99897.38;4964743;28;20398;-83
2021/07/05 00:51:12;;;;;;;6.15;3.03;;;;;;;17.09;100.00;99892.22;4985545;28;20467;-83
2021/07/05 00:53:48;;;;;;;8.05;3.35;;;;;;;17.02;100.00;99889.09;4986328;28;20486;-83
2021/07/05 00:56:23;;;;;;;5.70;3.45;;;;;;;16.95;100.00;99877.28;4986402;28;20018;-83
2021/07/05 00:59:04;;;;;;;7.10;3.53;;;;;;;16.98;100.00;99870.09;5003243;28;20038;-83
2021/07/05 01:01:54;;;;;;;7.72;3.63;;;;;;;16.91;100.00;99871.38;4983730;28;20090;-83
2021/07/05 01:04:34;;;;;;;7.00;4.22;;;;;;;16.90;100.00;99868.81;5003168;28;20077;-83
2021/07/05 01:07:05;;;;;;;5.65;3.20;;;;;;;16.94;100.00;99859.88;4985748;28;20110;-83
2021/07/05 01:09:57;;;;;;;7.05;3.80;;;;;;;16.89;100.00;99854.88;4985054;28;20410;-83
2021/07/05 01:12:38;;;;;;;7.90;3.45;;;;;;;16.84;100.00;99856.94;5002258;28;20076;-83
2021/07/05 01:15:39;;;;;;;6.13;2.92;;;;;;;16.87;100.00;99859.38;5002943;28;20364;-83
2021/07/05 01:18:33;;;;;;;;;;;;;;;;;;;;;
2021/07/05 01:21:10;;;;;;;6.93;3.40;;;;;;;16.88;100.00;99858.44;5002491;28;20122;-83
2021/07/05 01:23:50;;;;;;;5.57;3.17;;;;;;;16.79;100.00;99851.09;4985085;28;20437;-83
2021/07/05 01:26:28;;;;;;;;;;;;;;;;;;;;;
2021/07/05 01:29:14;;;;;;;6.57;3.40;;;;;;;16.68;100.00;99848.19;5001776;28;20109;-83
2021/07/05 01:31:51;;;;;;;9.30;3.20;;;;;;;16.66;100.00;99844.81;4984743;28;20453;-83
2021/07/05 01:34:20;;;;;;;7.00;3.58;;;;;;;16.62;100.00;99854.59;4985781;28;20034;-83
2021/07/05 01:37:47;;;;;;;5.47;3.40;;;;;;;16.58;100.00;99853.91;4986233;28;20080;-83
2021/07/05 01:40:19;;;;;;;8.27;3.47;;;;;;;16.48;100.00;99852.75;4985585;28;20073;-83
2021/07/05 01:43:24;;;;;;;6.72;3.72;;;;;;;16.48;100.00;99857.13;5002399;28;20026;-83
2021/07/05 01:45:58;;;;;;;10.32;4.05;;;;;;;16.40;100.00;99856.69;4962601;28;20030;-83
2021/07/05 01:48:31;;;;;;;6.40;3.47;;;;;;;16.45;100.00;99863.38;5001865;28;20038;-83
2021/07/05 01:55:12;;;;;;;;;;;;;;;;;;;;;
2021/07/05 01:59:00;;;;;;;7.25;4.28;;;;;;;16.14;100.00;99874.63;4997520;28;20494;-84
2021/07/05 02:02:08;;;;;;;;;;;;;;;;;;;;;
2021/07/05 02:05:30;;;;;;;;;;;;;;;;;;;;;
2021/07/05 02:27:10;;;;;;;;;;;;;;;;;;;;;
2021/07/05 02:34:28;;;;;;;7.60;4.50;;;;;;;15.99;100.00;99857.94;4691188;30;20446;-83
2021/07/05 02:37:17;;;;;;;;;;;;;;;;;;;;;
2021/07/05 02:39:49;;;;;;;7.88;4.95;;;;;;;16.01;100.00;99845.66;4849382;29;20105;-82
2021/07/05 02:42:38;;;;;;;;;;;;;;;;;;;;;
2021/07/05 02:45:42;;;;;;;;;;;;;;;;;;;;;
2021/07/05 03:00:02;;;;;;;;;;;;;;;;;;;;;
2021/07/05 03:03:32;;;;;;;;;;;;;;;;;;;;;
2021/07/05 03:13:49;;;;;;;;;;;;;;;;;;;;;
2021/07/05 04:02:20;;;;;;;17.45;11.73;;;;;;;15.86;100.00;99854.28;4992429;28;20105;-88
2021/07/05 04:04:46;;;;;;;18.52;12.88;;;;;;;15.97;100.00;99866.78;4976160;28;20033;-89
2021/07/05 04:07:13;;;;;;;15.48;12.18;;;;;;;15.86;100.00;99862.97;4976171;28;20019;-88
2021/07/05 04:09:41;;;;;;;18.70;11.63;;;;;;;15.90;100.00;99854.97;4976908;28;20026;-88
2021/07/05 04:12:10;;;;;;;15.82;11.25;;;;;;;15.99;100.00;99850.09;4957077;28;20446;-88
2021/07/05 04:14:36;;;;;;;14.35;12.25;;;;;;;16.01;100.00;99853.50;4956747;28;20062;-88
2021/07/05 04:17:01;;;;;;;16.13;11.77;;;;;;;16.02;100.00;99854.34;4956765;28;20419;-89
2021/07/05 04:19:26;;;;;;;15.68;12.10;;;;;;;16.06;100.00;99851.47;4956990;28;20084;-88
2021/07/05 04:21:52;;;;;;;16.63;11.07;;;;;;;16.06;100.00;99855.84;4958812;28;20062;-89
2021/07/05 04:24:17;;;;;;;16.23;11.10;;;;;;;15.96;100.00;99857.25;4960251;28;20073;-89
2021/07/05 04:26:43;;;;;;;13.88;10.68;;;;;;;15.98;100.00;99858.00;4960415;28;20121;-89
2021/07/05 04:29:09;;;;;;;16.80;11.20;;;;;;;16.02;100.00;99851.72;4960478;28;20030;-88
2021/07/05 04:31:34;;;;;;;13.30;10.25;;;;;;;15.94;100.00;99852.09;4960137;28;20038;-89
2021/07/05 04:34:02;;;;;;;14.60;10.85;;;;;;;16.06;100.00;99850.63;4960837;28;20039;-89
2021/07/05 04:36:28;;;;;;;15.27;11.15;;;;;;;16.02;100.00;99849.09;4960280;28;20019;-89
2021/07/05 04:38:57;;;;;;;16.58;10.80;;;;;;;16.05;100.00;99851.56;4960370;28;20030;-88
2021/07/05 04:41:25;;;;;;;19.45;11.68;;;;;;;15.93;100.00;99845.19;4959375;28;20039;-89
2021/07/05 04:43:51;;;;;;;21.83;11.38;;;;;;;15.92;100.00;99850.47;4959848;28;20058;-89
2021/07/05 04:46:18;;;;;;;16.98;10.30;;;;;;;16.02;100.00;99849.09;4960018;28;20447;-89
2021/07/05 04:48:44;;;;;;;12.82;10.40;;;;;;;15.95;100.00;99847.72;4959855;28;20261;-89
2021/07/05 04:51:12;;;;;;;13.43;10.43;;;;;;;16.02;100.00;99852.56;4959835;28;20130;-89
2021/07/05 04:53:38;;;;;;;14.30;10.88;;;;;;;15.97;100.00;99851.09;4959999;28;20487;-89
2021/07/05 04:56:05;;;;;;;17.30;11.95;;;;;;;15.91;100.00;99848.81;4960062;28;20034;-89
2021/07/05 04:58:30;;;;;;;16.67;11.15;;;;;;;15.94;100.00;99846.88;4959857;28;20022;-89
2021/07/05 05:01:04;;;;;;;14.57;11.27;;;;;;;16.02;100.00;99852.56;4960312;28;20378;-89
2021/07/05 05:03:31;;;;;;;15.30;11.15;;;;;;;16.01;100.00;99850.00;4959723;28;20109;-89
2021/07/05 05:06:12;;;;;;;16.90;11.52;;;;;;;15.97;100.00;99843.25;4959774;28;20073;-89
2021/07/05 05:08:45;;;;;;;16.48;11.60;;;;;;;16.03;100.00;99851.63;4959857;28;20031;-88
2021/07/05 05:11:11;;;;;;;17.85;11.10;;;;;;;16.05;100.00;99848.94;4958239;28;20046;-89
2021/07/05 05:13:42;;;;;;;16.50;11.45;;;;;;;16.01;100.00;99847.38;4960464;28;20356;-89
2021/07/05 05:16:08;;;;;;;15.63;11.55;;;;;;;16.06;100.00;99846.22;4959456;28;20109;-89
2021/07/05 05:18:45;;;;;;;12.55;10.45;;;;;;;16.12;100.00;99845.06;4958272;28;20078;-89
2021/07/05 05:21:11;;;;;;;16.35;11.88;;;;;;;16.03;100.00;99853.41;4959902;28;20023;-88
2021/07/05 05:23:36;;;;;;;16.90;11.23;;;;;;;16.07;100.00;99854.91;4959143;28;20534;-87
2021/07/05 05:26:05;;;;;;;13.82;10.60;;;;;;;16.02;100.00;99847.31;4959481;28;20026;-88
2021/07/05 05:28:31;;;;;;;15.95;11.15;;;;;;;16.10;100.00;99854.75;4959478;28;20122;-84
2021/07/05 05:30:57;;;;;;;13.07;10.50;;;;;;;16.14;100.00;99853.69;4959908;28;20062;-88
2021/07/05 05:33:23;;;;;;;15.43;10.70;;;;;;;16.02;100.00;99856.94;4958943;28;20403;-88
2021/07/05 05:35:50;;;;;;;15.98;10.30;;;;;;;16.05;100.00;99859.41;4959314;28;20388;-86
2021/07/05 05:38:20;;;;;;;14.50;11.57;;;;;;;16.04;100.00;99857.69;4960350;28;20029;-86
2021/07/05 05:40:45;;;;;;;14.68;10.35;;;;;;;15.99;100.00;99860.56;4968675;28;20022;-87
2021/07/05 05:43:13;;;;;;;15.88;9.55;;;;;;;16.18;100.00;99865.69;4970598;28;20045;-87
2021/07/05 05:45:39;;;;;;;13.25;10.65;;;;;;;16.05;100.00;99869.88;4976186;28;20050;-85
2021/07/05 05:48:06;;;;;;;12.75;10.57;;;;;;;15.91;100.00;99878.41;4974442;28;20487;-85
2021/07/05 05:50:31;;;;;;;15.40;10.48;;;;;;;16.03;100.00;99869.09;4967495;28;20030;-85
2021/07/05 05:53:01;;;;;;;16.58;11.32;;;;;;;15.94;100.00;99878.25;4970374;28;20027;-85
2021/07/05 05:55:26;;;;;;;14.68;10.70;;;;;;;15.81;100.00;99883.28;4961456;28;20027;-84
2021/07/05 05:57:51;;;;;;;16.48;10.50;;;;;;;16.03;100.00;99871.72;4959886;28;20033;-85
2021/07/05 06:00:21;;;;;;;17.98;11.02;;;;;;;16.02;100.00;99875.25;4959615;28;20022;-85
2021/07/05 06:02:49;;;;;;;15.45;10.25;;;;;;;16.04;100.00;99868.16;4958952;28;20030;-86
2021/07/05 06:05:15;;;;;;;15.45;10.20;;;;;;;16.04;100.00;99871.66;4959671;28;20039;-86
2021/07/05 06:07:46;;;;;;;15.48;10.68;;;;;;;15.83;100.00;99870.97;4959281;28;20027;-86
2021/07/05 06:10:11;;;;;;;14.95;10.38;;;;;;;16.00;100.00;99866.63;4959719;28;20030;-86
2021/07/05 06:12:37;;;;;;;14.75;11.45;;;;;;;15.90;100.00;99875.88;4958940;28;20022;-85
2021/07/05 06:15:03;;;;;;;13.82;10.20;;;;;;;16.06;100.00;99866.31;4976541;28;20101;-85
2021/07/05 06:17:28;;;;;;;13.35;10.80;;;;;;;16.04;100.00;99873.38;4959004;28;20447;-85
2021/07/05 06:19:53;;;;;;;13.02;10.23;;;;;;;16.16;100.00;99867.53;4975161;28;20090;-85
2021/07/05 06:22:27;;;;;;;14.25;11.23;;;;;;;16.17;100.00;99868.41;4974856;28;20493;-85
2021/07/05 06:24:53;;;;;;;16.20;10.93;;;;;;;16.22;100.00;99877.66;4974775;28;20545;-86
2021/07/05 06:27:18;;;;;;;25.05;12.07;;;;;;;16.39;100.00;99878.56;4958574;28;20125;-86
2021/07/05 06:29:43;;;;;;;12.88;11.52;;;;;;;16.37;100.00;99875.19;4976096;28;20483;-86
2021/07/05 06:32:10;;;;;;;21.42;12.27;;;;;;;16.26;100.00;99879.22;4958938;28;20034;-84
2021/07/05 06:34:35;;;;;;;16.52;11.13;;;;;;;16.24;100.00;99874.97;4958346;28;20022;-85
2021/07/05 06:37:00;;;;;;;15.73;12.77;;;;;;;16.25;100.00;99882.75;4958414;28;20467;-85
2021/07/05 06:39:26;;;;;;;16.45;12.48;;;;;;;16.32;100.00;99875.44;4964699;28;20486;-85
2021/07/05 06:41:51;;;;;;;18.92;13.82;;;;;;;16.33;100.00;99877.97;4974068;28;20037;-85
2021/07/05 06:44:18;;;;;;;14.65;13.05;;;;;;;16.37;100.00;99881.25;4957925;28;20031;-85
2021/07/05 06:46:43;;;;;;;17.35;12.85;;;;;;;16.46;100.00;99882.53;4957855;28;20026;-85
2021/07/05 06:49:14;;;;;;;19.27;13.57;;;;;;;16.54;100.00;99882.97;4957931;28;20030;-85
2021/07/05 06:51:40;;;;;;;17.00;13.70;;;;;;;16.43;100.00;99874.84;4958223;28;20094;-85
2021/07/05 06:54:05;;;;;;;18.20;13.38;;;;;;;16.54;100.00;99868.13;4958054;28;20475;-85
2021/07/05 06:56:30;;;;;;;16.75;14.20;;;;;;;16.76;100.00;99873.06;4957740;28;20023;-85
2021/07/05 06:58:55;;;;;;;15.55;13.30;;;;;;;16.80;100.00;99874.56;4957929;28;20410;-85
2021/07/05 07:01:21;;;;;;;16.95;12.88;;;;;;;16.72;100.00;99868.91;4973581;28;20100;-85
2021/07/05 07:03:46;;;;;;;14.50;12.98;;;;;;;16.70;100.00;99872.53;4973497;28;20034;-85
2021/07/05 07:06:11;;;;;;;18.35;13.95;;;;;;;16.94;100.00;99863.34;4957354;28;20031;-86
2021/07/05 07:08:37;;;;;;;16.85;13.77;;;;;;;17.20;100.00;99859.25;4957648;28;20035;-86
2021/07/05 07:11:02;;;;;;;16.35;13.25;;;;;;;17.60;100.00;99863.97;4957381;28;20023;-86
2021/07/05 07:13:27;;;;;;;14.77;12.57;;;;;;;18.37;100.00;99857.63;4957475;28;20026;-85
2021/07/05 07:15:55;;;;;;;15.20;13.60;;;;;;;19.00;100.00;99858.97;4957794;28;20027;-85
2021/07/05 07:20:46;;;;;;;16.85;12.48;;;;;;;19.54;100.00;99851.84;4974886;28;20033;-85
2021/07/05 07:23:11;;;;;;;14.13;11.85;;;;;;;19.67;100.00;99853.69;4974515;28;20035;-85
2021/07/05 07:25:37;;;;;;;13.20;11.48;;;;;;;19.79;97.35;99850.22;4957313;28;20130;-85
2021/07/05 07:28:02;;;;;;;13.00;10.32;;;;;;;20.48;96.00;99839.34;4957183;28;20121;-85
2021/07/05 07:30:28;;;;;;;14.15;10.60;;;;;;;21.11;91.20;99843.56;4957214;28;20510;-85
2021/07/05 07:32:53;;;;;;;13.57;10.23;;;;;;;20.14;96.94;99844.34;4974559;28;20035;-85
2021/07/05 07:35:19;;;;;;;14.07;10.23;;;;;;;21.38;89.48;99843.38;4957307;28;20026;-85
2021/07/05 07:37:47;;;;;;;14.05;9.95;;;;;;;21.35;89.42;99841.78;4957232;28;20023;-85
2021/07/05 07:42:39;;;;;;;12.02;10.10;;;;;;;22.48;81.21;99850.75;4974856;28;20031;-85
2021/07/05 07:45:05;;;;;;;11.35;9.25;;;;;;;22.03;84.90;99849.88;4956987;28;20503;-85
2021/07/05 07:47:31;;;;;;;14.25;9.18;;;;;;;21.05;84.10;99851.94;4957030;28;20023;-85
2021/07/05 07:49:58;;;;;;;13.20;8.70;;;;;;;20.96;83.11;99855.25;4957323;28;20077;-85
2021/07/05 07:52:23;;;;;;;10.93;8.57;;;;;;;20.95;78.84;99849.13;4957118;28;20450;-85
2021/07/05 07:54:49;;;;;;;12.82;8.25;;;;;;;20.36;86.51;99849.78;4957058;28;20026;-85
2021/07/05 07:57:16;;;;;;;13.10;8.45;;;;;;;20.16;87.14;99852.97;4959756;28;20085;-85
2021/07/05 07:59:45;;;;;;;10.35;8.70;;;;;;;20.28;88.53;99844.22;4960701;28;20030;-86
2021/07/05 08:02:12;;;;;;;14.00;9.65;;;;;;;20.48;85.37;99840.19;4960766;28;20391;-84
2021/07/05 08:04:38;;;;;;;11.65;8.82;;;;;;;20.18;89.01;99838.75;4961580;28;20366;-84
2021/07/05 08:07:04;;;;;;;10.73;9.32;;;;;;;19.62;90.89;99839.97;4960708;28;20034;-85
2021/07/05 08:09:30;;;;;;;10.77;9.15;;;;;;;19.74;90.14;99839.19;4977972;28;20031;-85
2021/07/05 08:11:55;;;;;;;12.65;10.30;;;;;;;19.44;88.27;99845.53;4960539;28;20065;-85
2021/07/05 08:14:20;;;;;;;13.73;9.40;;;;;;;19.65;90.80;99850.34;4976685;28;20030;-85
2021/07/05 08:16:45;;;;;;;13.65;11.07;;;;;;;19.19;91.41;99834.94;4976778;28;20498;-85
2021/07/05 08:19:11;;;;;;;14.65;10.30;;;;;;;19.25;93.81;99845.06;4960584;28;20033;-85
2021/07/05 08:21:39;;;;;;;14.45;9.93;;;;;;;19.21;93.19;99840.91;4960398;28;20050;-85
2021/07/05 08:24:05;;;;;;;12.35;9.77;;;;;;;19.57;92.68;99836.81;4977773;28;20109;-85
2021/07/05 08:26:31;;;;;;;11.50;9.88;;;;;;;20.34;88.78;99838.50;4960258;28;20439;-85
2021/07/05 08:28:57;;;;;;;11.82;8.80;;;;;;;20.89;85.54;99839.03;4960359;28;20403;-85
2021/07/05 08:31:31;;;;;;;12.38;9.73;;;;;;;20.40;86.99;99842.50;4960701;28;20019;-85
2021/07/05 08:33:56;;;;;;;14.13;9.82;;;;;;;19.75;90.21;99848.75;4959916;28;20042;-85
2021/07/05 08:36:22;;;;;;;13.80;8.73;;;;;;;19.59;90.45;99858.59;4961013;28;20472;-85
2021/07/05 08:38:48;;;;;;;13.85;8.60;;;;;;;20.25;86.70;99852.31;4960551;28;20467;-85
2021/07/05 08:41:14;;;;;;;13.00;8.57;;;;;;;20.23;84.85;99847.19;4960238;28;20033;-85
2021/07/05 08:43:45;;;;;;;12.95;8.55;;;;;;;20.43;84.54;99853.66;4960035;28;20487;-85
2021/07/05 08:46:12;;;;;;;12.23;8.70;;;;;;;19.98;87.16;99847.16;4959866;28;20502;-85
2021/07/05 08:48:40;;;;;;;10.50;8.02;;;;;;;21.16;81.84;99849.38;4960874;28;20459;-85
2021/07/05 08:51:08;;;;;;;10.75;8.10;;;;;;;22.10;80.17;99847.59;4977483;28;20030;-85
2021/07/05 08:53:34;;;;;;;9.48;7.13;;;;;;;22.67;71.42;99841.34;4959835;28;20050;-85
2021/07/05 08:55:59;;;;;;;10.70;6.90;;;;;;;23.82;66.93;99837.19;4959765;28;20439;-84
2021/07/05 08:58:25;;;;;;;8.10;6.20;;;;;;;24.93;64.78;99831.88;4977059;28;20066;-84
2021/07/05 09:00:51;;;;;;;8.82;5.85;;;;;;;24.77;62.95;99840.38;4959441;28;20479;-85
2021/07/05 09:03:25;;;;;;;9.30;5.97;;;;;;;24.46;63.62;99844.91;4959722;28;20165;-85
2021/07/05 09:06:22;;;;;;;9.25;6.03;;;;;;;24.63;62.31;99831.97;4959642;28;20027;-85
2021/07/05 09:08:56;;;;;;;9.38;4.70;;;;;;;25.07;60.56;99837.78;4950656;28;20118;-85
2021/07/05 09:11:37;;;;;;;8.13;5.38;;;;;;;23.23;66.38;99837.72;4959632;28;20034;-85
2021/07/05 09:14:11;;;;;;;8.93;5.70;;;;;;;24.41;62.33;99836.47;4959531;28;20034;-85
2021/07/05 09:16:36;;;;;;;;;;;;;;;23.54;65.90;99844.78;4960052;28;20185;-84
2021/07/05 09:19:13;;;;;;;8.15;5.20;;;;;;;24.49;60.33;99841.16;4959754;28;20386;-85
2021/07/05 09:21:39;;;;;;;9.35;5.75;;;;;;;22.17;67.86;99827.72;4959258;28;20026;-85
2021/07/05 09:24:08;;;;;;;10.77;6.18;;;;;;;22.98;65.09;99837.09;4959359;28;20023;-85
2021/07/05 09:26:42;;;;;;;9.23;5.03;;;;;;;23.94;64.53;99830.03;4959196;28;20022;-86
2021/07/05 09:29:13;;;;;;;7.30;4.50;;;;;;;24.34;61.01;99830.06;4960203;28;20030;-85
2021/07/05 09:31:51;;;;;;;10.07;4.47;;;;;;;24.98;55.86;99824.38;4959262;28;20034;-85
2021/07/05 09:34:18;;;;;;;10.05;4.95;;;;;;;22.84;63.17;99832.06;4959303;28;20134;-86
2021/07/05 09:36:44;;;;;;;7.82;4.03;;;;;;;23.55;63.35;99825.31;4959569;28;20553;-85
2021/07/05 09:39:20;;;;;;;9.35;4.25;;;;;;;22.67;66.23;99828.97;4959184;28;20062;-85
2021/07/05 09:41:47;;;;;;;7.32;4.25;;;;;;;22.08;65.75;99831.88;4959027;28;20177;-85
2021/07/05 09:44:16;;;;;;;8.88;4.20;;;;;;;22.02;69.99;99837.63;4959185;28;20022;-86
2021/07/05 09:46:43;;;;;;;8.57;4.35;;;;;;;21.63;70.80;99844.16;4976351;28;20027;-85
2021/07/05 09:49:28;;;;;;;9.20;4.90;;;;;;;21.99;68.67;99830.78;4976244;28;20502;-85
2021/07/05 09:52:09;;;;;;;6.63;4.20;;;;;;;23.98;61.01;99834.91;4958744;28;20019;-85
2021/07/05 09:54:35;;;;;;;9.82;3.55;;;;;;;24.13;64.81;99833.59;4958726;28;20038;-85
2021/07/05 09:57:03;;;;;;;6.05;3.55;;;;;;;24.17;61.44;99831.53;4976007;28;20018;-86
2021/07/05 09:59:29;;;;;;;6.43;3.42;;;;;;;23.28;62.53;99833.75;4958934;28;20427;-85
2021/07/05 10:01:56;;;;;;;7.80;3.10;;;;;;;23.14;59.89;99834.88;4958704;28;20034;-85
2021/07/05 10:04:37;;;;;;;5.60;2.90;;;;;;;22.78;63.62;99848.41;4975913;28;20037;-85
2021/07/05 10:07:04;;;;;;;6.13;3.00;;;;;;;22.81;61.57;99842.88;4959422;28;20027;-84
2021/07/05 10:09:38;;;;;;;5.85;3.08;;;;;;;22.75;65.37;99850.34;5001933;23;20402;-80
2021/07/05 10:12:18;;;;;;;4.90;2.60;;;;;;;22.94;64.38;99849.75;4980899;28;20026;-80
2021/07/05 10:14:57;;;;;;;7.05;2.90;;;;;;;23.35;60.88;99855.25;4963491;28;20031;-80
2021/07/05 10:17:23;;;;;;;6.53;3.30;;;;;;;24.02;61.31;99856.69;4979099;28;20051;-80
2021/07/05 10:19:49;;;;;;;7.72;3.33;;;;;;;23.18;66.10;99864.56;4979088;28;20023;-80
2021/07/05 10:22:15;;;;;;;7.85;2.80;;;;;;;22.97;65.82;99859.22;4961763;28;20026;-80
2021/07/05 10:24:43;;;;;;;5.68;2.67;;;;;;;23.15;64.90;99868.31;4979418;28;20394;-80
2021/07/05 10:27:10;;;;;;;6.93;3.20;;;;;;;22.64;63.30;99862.75;4979362;28;20019;-80
2021/07/05 10:29:39;;;;;;;5.57;2.80;;;;;;;23.55;62.00;99858.88;4978150;28;20035;-80
2021/07/05 10:32:06;;;;;;;5.22;2.60;;;;;;;23.54;63.03;99865.13;4959946;28;20031;-79
2021/07/05 10:34:31;;;;;;;5.95;2.88;;;;;;;23.02;61.72;99857.03;4960383;28;20034;-80
2021/07/05 10:36:58;;;;;;;4.72;2.58;;;;;;;23.27;63.06;99857.66;4978343;28;20027;-80
2021/07/05 10:39:25;;;;;;;6.25;2.55;;;;;;;23.70;61.96;99864.72;4977865;28;20027;-80
2021/07/05 10:41:50;;;;;;;4.03;2.00;;;;;;;23.77;61.20;99868.53;4960047;28;20081;-80
2021/07/05 10:44:20;;;;;;;4.90;2.70;;;;;;;23.11;64.04;99860.75;4961313;28;20030;-80
2021/07/05 10:46:48;;;;;;;9.02;2.60;;;;;;;22.96;63.97;99865.47;4961120;28;20106;-80
2021/07/05 10:49:29;;;;;;;5.10;2.53;;;;;;;22.76;66.43;99861.78;4979445;28;20030;-81
2021/07/05 10:52:02;;;;;;;5.28;2.35;;;;;;;22.41;67.36;99859.28;4961884;28;20033;-80
2021/07/05 10:54:40;;;;;;;4.72;2.25;;;;;;;22.38;65.92;99860.34;4978756;28;20027;-81
2021/07/05 10:57:06;;;;;;;4.00;2.30;;;;;;;22.62;65.35;99870.78;4979226;28;20027;-81
2021/07/05 10:59:31;;;;;;;5.20;2.40;;;;;;;22.64;65.14;99855.66;4978503;28;20096;-81
2021/07/05 11:01:56;;;;;;;5.83;2.33;;;;;;;22.39;63.86;99853.28;4962768;28;20479;-82
2021/07/05 11:04:29;;;;;;;4.82;2.30;;;;;;;22.12;67.14;99857.09;4980601;28;20026;-81
2021/07/05 11:06:57;;;;;;;5.55;2.40;;;;;;;22.68;66.85;99857.09;4978392;28;20045;-81
2021/07/05 11:09:24;;;;;;;5.03;2.22;;;;;;;22.96;63.76;99857.53;4961494;28;20539;-81
2021/07/05 11:11:59;;;;;;;4.20;2.13;;;;;;;23.05;65.36;99856.78;4962158;28;20109;-81
2021/07/05 11:14:27;;;;;;;4.57;2.10;;;;;;;23.42;62.37;99854.59;4980272;28;20030;-82
2021/07/05 11:17:08;;;;;;;6.72;2.42;;;;;;;22.89;60.40;99854.50;4979084;28;20026;-82
2021/07/05 11:19:46;;;;;;;7.68;2.60;;;;;;;23.09;63.20;99852.06;4979296;28;20383;-82
2021/07/05 11:22:17;;;;;;;5.65;2.30;;;;;;;22.63;63.55;99855.75;4961831;28;20033;-82
2021/07/05 11:24:47;;;;;;;7.78;2.55;;;;;;;22.04;65.19;99855.06;4979472;28;20033;-82
2021/07/05 11:27:33;;;;;;;4.30;2.00;;;;;;;22.16;67.55;99858.53;4978592;28;20050;-82
2021/07/05 11:30:36;;;;;;;4.97;2.33;;;;;;;22.35;67.81;99852.66;4960867;28;20042;-82
2021/07/05 11:33:20;;;;;;;4.43;2.17;;;;;;;22.78;67.06;99841.31;4962573;28;20450;-82
2021/07/05 11:35:52;;;;;;;5.50;2.50;;;;;;;22.59;66.68;99847.25;4979742;28;20018;-82
2021/07/05 11:38:31;;;;;;;5.57;2.13;;;;;;;22.49;68.11;99848.94;4979513;28;20061;-82
2021/07/05 11:41:24;;;;;;;3.95;1.80;;;;;;;22.01;68.68;99852.66;4961928;28;20391;-82
2021/07/05 11:44:04;;;;;;;5.78;1.90;;;;;;;21.90;70.90;99860.53;4978437;28;20055;-83
2021/07/05 11:46:29;;;;;;;4.97;2.08;;;;;;;21.56;72.16;99854.34;4979589;28;20023;-82
2021/07/05 11:49:14;;;;;;;5.83;1.87;;;;;;;21.17;72.38;99858.94;4979921;28;20031;-82
2021/07/05 11:51:49;;;;;;;5.32;1.70;;;;;;;21.11;73.86;99857.59;4979621;28;20034;-82
2021/07/05 11:54:19;;;;;;;5.65;1.58;;;;;;;20.79;77.29;99865.22;4980000;28;20054;-82
2021/07/05 11:56:53;;;;;;;6.07;2.13;;;;;;;20.65;82.95;99862.72;4963619;28;20395;-83
2021/07/05 11:59:24;;;;;;;4.85;2.10;;;;;;;20.38;89.27;99863.72;4968126;28;20023;-82
2021/07/05 12:02:02;;;;;;;8.15;2.13;;;;;;;20.12;89.24;99864.66;4981969;28;20035;-83
2021/07/05 12:04:42;;;;;;;7.95;2.17;;;;;;;19.95;94.66;99874.56;4978124;28;20194;-84
2021/07/05 12:07:13;;;;;;;5.78;2.08;;;;;;;19.91;100.00;99880.13;4978732;28;20077;-84
2021/07/05 12:09:39;;;;;;;5.35;2.30;;;;;;;19.61;99.31;99878.59;4976254;28;20035;-84
2021/07/05 12:12:11;;;;;;;6.53;2.72;;;;;;;19.31;100.00;99879.69;4959927;28;20042;-84
2021/07/05 12:14:37;;;;;;;7.07;2.92;;;;;;;19.20;100.00;99876.06;4960052;28;20029;-83
2021/07/05 12:17:03;;;;;;;5.70;2.47;;;;;;;18.87;100.00;99882.53;4963339;28;20042;-82
2021/07/05 12:19:33;;;;;;;9.10;2.80;;;;;;;18.77;100.00;99881.44;4961787;28;20027;-84
2021/07/05 12:22:04;;;;;;;4.82;2.45;;;;;;;18.38;100.00;99880.28;4958951;28;20030;-84
2021/07/05 12:24:32;;;;;;;7.30;2.88;;;;;;;18.49;100.00;99879.66;4960973;28;20041;-84
2021/07/05 12:27:01;;;;;;;9.00;2.55;;;;;;;18.38;100.00;99878.53;4958512;28;20071;-85
2021/07/05 12:29:40;;;;;;;6.50;2.75;;;;;;;18.13;100.00;99876.56;4974933;28;20037;-85
2021/07/05 12:32:17;;;;;;;6.90;2.50;;;;;;;18.13;100.00;99887.06;4962070;28;20037;-84
2021/07/05 12:34:46;;;;;;;5.97;1.70;;;;;;;17.91;100.00;99884.03;4965833;28;20050;-83
2021/07/05 12:37:18;;;;;;;4.55;1.60;;;;;;;17.67;100.00;99892.38;4966034;28;20483;-83
2021/07/05 12:39:46;;;;;;;4.63;1.83;;;;;;;17.75;100.00;99889.31;4985025;28;20380;-83
2021/07/05 12:42:25;;;;;;;3.65;1.70;;;;;;;17.61;100.00;99897.13;4970637;28;20034;-83
2021/07/05 12:44:50;;;;;;;4.10;1.38;;;;;;;17.64;100.00;99905.69;4973039;28;20038;-83
2021/07/05 12:47:16;;;;;;;6.55;1.63;;;;;;;17.64;100.00;99902.19;4970371;28;20067;-83
2021/07/05 12:49:41;;;;;;;4.60;1.13;;;;;;;17.74;100.00;99900.75;4987364;28;20031;-83
2021/07/05 12:52:08;;;;;;;3.95;1.40;;;;;;;17.78;100.00;99907.53;4969289;28;20022;-83
2021/07/05 12:54:35;;;;;;;3.08;1.15;;;;;;;17.59;100.00;99905.09;4988338;28;20030;-83
2021/07/05 12:57:12;;;;;;;5.00;1.00;;;;;;;17.62;100.00;99918.03;4986435;28;20023;-83
2021/07/05 12:59:39;;;;;;;2.08;0.80;;;;;;;17.48;100.00;99915.34;4988227;28;20019;-82
2021/07/05 13:02:43;;;;;;;4.28;1.35;;;;;;;17.34;100.00;99915.31;4973288;28;20062;-82
2021/07/05 13:05:15;;;;;;;2.88;0.80;;;;;;;17.30;100.00;99913.75;4907982;29;20031;-82
2021/07/05 13:07:56;;;;;;;2.78;0.85;;;;;;;17.35;100.00;99920.44;4907518;29;20503;-82
2021/07/05 13:10:31;;;;;;;3.13;0.85;;;;;;;17.69;100.00;99914.09;4956949;28;20049;-83
2021/07/05 13:13:00;;;;;;;3.13;1.13;;;;;;;17.47;100.00;99911.03;4986158;28;20031;-83
2021/07/05 13:22:58;;;;;;;;;;;;;;;;;;;;;
2021/07/05 13:26:38;;;;;;;;;;;;;;;;;;;;;
2021/07/05 13:33:20;;;;;;;;;;;;;;;;;;;;;
2021/07/05 13:37:07;;;;;;;;;;;;;;;;;;;;;
2021/07/05 14:11:51;;;;;;;;;;;;;;;;;;;;;
2021/07/05 14:14:57;;;;;;;;;;;;;;;;;;;;;
2021/07/05 14:17:35;;;;;;;5.60;3.95;;;;;;;19.48;100.00;99927.69;4884631;29;20133;-82
2021/07/05 14:20:21;;;;;;;7.38;4.15;;;;;;;19.20;100.00;99931.25;4884804;29;20067;-82
2021/07/05 14:23:26;;;;;;;;;;;;;;;;;;;;;
2021/07/05 14:26:13;;;;;;;6.07;4.00;;;;;;;19.05;100.00;99923.41;4880869;29;20095;-82
2021/07/05 14:28:46;;;;;;;5.88;3.95;;;;;;;19.22;100.00;99921.50;4883195;29;20077;-82
2021/07/05 14:31:26;;;;;;;6.65;4.10;;;;;;;19.26;100.00;99918.56;4895160;29;20036;-81
2021/07/05 14:34:23;;;;;;;6.60;4.35;;;;;;;19.14;100.00;99915.88;4925515;29;20532;-82
2021/07/05 14:37:00;;;;;;;5.53;3.42;;;;;;;17.94;100.00;99924.03;4912013;29;20178;-81
2021/07/05 14:39:31;;;;;;;4.35;2.38;;;;;;;18.06;100.00;99916.38;4903976;29;20058;-81
2021/07/05 14:42:01;;;;;;;4.38;2.25;;;;;;;18.09;100.00;99930.16;4903186;29;20057;-81
2021/07/05 14:44:27;;;;;;;6.25;2.33;;;;;;;18.16;100.00;99923.63;4908114;29;20033;-81
2021/07/05 14:47:04;;;;;;;8.07;2.30;;;;;;;18.42;100.00;99920.38;4904935;29;20513;-81
2021/07/05 14:49:32;;;;;;;4.07;1.70;;;;;;;18.48;100.00;99917.38;4904615;29;20036;-82